Time;durP1;ratioP1;P1;durP2;ratioP2;P2;SDS_P1;SDS_P2;PMS_P1;PMS_P2;Temp;Humidity;BMP_temperature;BMP_pressure;BME280_temperature;BME280_humidity;BME280_pressure;Samples;Min_cycle;Max_cycle;Signal;HPM_P1;HPM_P2
2023/07/08 00:00:27;;;;;;;;;;;23.30;87.10;;;;;;5095923;28;19908;-53
2023/07/08 00:02:52;;;;;;;;;;;23.30;87.10;;;;;;5096173;28;19908;-53
2023/07/08 00:05:19;;;;;;;;;;;23.30;87.10;;;;;;5096106;28;19912;-51
2023/07/08 00:07:45;;;;;;;;;;;23.30;87.20;;;;;;5096125;28;19935;-51
2023/07/08 00:10:15;;;;;;;;;;;23.30;87.10;;;;;;5096131;28;19935;-53
2023/07/08 00:12:42;;;;;;;;;;;23.30;87.10;;;;;;5096000;28;19916;-52
2023/07/08 00:15:08;;;;;;;;;;;23.30;87.20;;;;;;5095923;28;19916;-51
2023/07/08 00:17:33;;;;;;;;;;;23.30;87.20;;;;;;5095910;28;20351;-52
2023/07/08 00:19:58;;;;;;;;;;;23.30;87.20;;;;;;5095588;28;19908;-53
2023/07/08 00:22:24;;;;;;;;;;;23.30;87.20;;;;;;5077675;28;19954;-50
2023/07/08 00:24:50;;;;;;;;;;;23.30;87.20;;;;;;5095654;28;19908;-49
2023/07/08 00:27:16;;;;;;;;;;;23.30;87.30;;;;;;5095440;28;19908;-51
2023/07/08 00:29:42;;;;;;;;;;;23.30;87.30;;;;;;5095391;28;19922;-50
2023/07/08 00:32:12;;;;;;;;;;;23.30;87.30;;;;;;5095239;28;19920;-50
2023/07/08 00:34:38;;;;;;;;;;;23.30;87.30;;;;;;5095611;28;19919;-53
2023/07/08 00:37:05;;;;;;;;;;;23.30;87.40;;;;;;5095622;28;19910;-50
2023/07/08 00:39:31;;;;;;;;;;;23.30;87.40;;;;;;5095632;28;19918;-49
2023/07/08 00:41:58;;;;;;;;;;;23.30;87.50;;;;;;5095163;28;19944;-51
2023/07/08 00:44:23;;;;;;;;;;;23.30;87.60;;;;;;5095296;28;19920;-51
2023/07/08 00:46:58;;;;;;;;;;;23.30;87.60;;;;;;5095378;28;19913;-47
2023/07/08 00:49:23;;;;;;;;;;;23.30;87.70;;;;;;5095229;28;19915;-52
2023/07/08 00:51:49;;;;;;;;;;;23.30;87.70;;;;;;5094856;28;19912;-50
2023/07/08 00:54:16;;;;;;;;;;;23.30;87.80;;;;;;5093650;28;19957;-50
2023/07/08 00:56:45;;;;;;;;;;;23.30;87.80;;;;;;5095125;28;20270;-49
2023/07/08 00:59:15;;;;;;;;;;;23.30;87.80;;;;;;5094724;28;19912;-51
2023/07/08 01:01:42;;;;;;;;;;;23.30;87.90;;;;;;5095016;28;19908;-49
2023/07/08 01:04:08;;;;;;;;;;;23.30;87.90;;;;;;5094889;28;20000;-52
2023/07/08 01:06:39;;;;;;;;;;;23.30;87.90;;;;;;5094577;28;19912;-50
2023/07/08 01:09:06;;;;;;;;;;;23.30;87.90;;;;;;5094707;28;20347;-48
2023/07/08 01:11:32;;;;;;;;;;;23.30;87.90;;;;;;5094800;28;19912;-50
2023/07/08 01:13:59;;;;;;;;;;;23.30;87.90;;;;;;5094537;28;20000;-51
2023/07/08 01:16:25;;;;;;;;;;;23.30;87.90;;;;;;5094892;28;19908;-50
2023/07/08 01:18:53;;;;;;;;;;;23.30;88.00;;;;;;5094410;28;20415;-51
2023/07/08 01:21:30;;;;;;;;;;;23.30;88.00;;;;;;5094709;28;19919;-50
2023/07/08 01:23:55;;;;;;;;;;;23.30;88.00;;;;;;5094639;28;20266;-51
2023/07/08 01:26:22;;;;;;;;;;;23.30;88.00;;;;;;5094670;28;20007;-47
2023/07/08 01:28:48;;;;;;;;;;;23.30;88.00;;;;;;5094584;28;19915;-48
2023/07/08 01:31:14;;;;;;;;;;;23.30;88.00;;;;;;5094104;28;19999;-51
2023/07/08 01:33:39;;;;;;;;;;;23.30;88.00;;;;;;5094482;28;19912;-49
2023/07/08 01:36:05;;;;;;;;;;;23.30;88.00;;;;;;5094142;28;20106;-51
2023/07/08 01:38:31;;;;;;;;;;;23.30;88.00;;;;;;5094153;28;19909;-51
2023/07/08 01:40:57;;;;;;;;;;;23.30;88.00;;;;;;5094211;28;20364;-50
2023/07/08 01:43:23;;;;;;;;;;;23.30;88.00;;;;;;5094434;28;19908;-50
2023/07/08 01:45:50;;;;;;;;;;;23.30;88.00;;;;;;5094401;28;19928;-50
2023/07/08 01:48:17;;;;;;;;;;;23.30;88.00;;;;;;5093886;28;19908;-49
2023/07/08 01:50:46;;;;;;;;;;;23.30;88.00;;;;;;5094173;28;20278;-51
2023/07/08 01:53:17;;;;;;;;;;;23.30;88.10;;;;;;5094222;28;19912;-49
2023/07/08 01:55:42;;;;;;;;;;;23.30;88.10;;;;;;5094219;28;19969;-49
2023/07/08 01:58:08;;;;;;;;;;;23.30;88.10;;;;;;5093859;28;20329;-49
2023/07/08 02:00:33;;;;;;;;;;;23.30;88.10;;;;;;5093856;28;19945;-51
2023/07/08 02:02:59;;;;;;;;;;;23.30;88.10;;;;;;5094524;28;19915;-50
2023/07/08 02:05:24;;;;;;;;;;;23.30;88.10;;;;;;5093993;28;19951;-48
2023/07/08 02:07:50;;;;;;;;;;;23.30;88.10;;;;;;5094047;28;19908;-52
2023/07/08 02:10:15;;;;;;;;;;;23.30;88.10;;;;;;5093733;28;20307;-52
2023/07/08 02:12:41;;;;;;;;;;;23.30;88.10;;;;;;5093907;28;20393;-49
2023/07/08 02:15:08;;;;;;;;;;;23.30;88.10;;;;;;5094396;28;19964;-49
2023/07/08 02:17:33;;;;;;;;;;;23.30;88.20;;;;;;5075706;28;19908;-51
2023/07/08 02:19:59;;;;;;;;;;;23.30;88.20;;;;;;5093660;28;19908;-52
2023/07/08 02:22:24;;;;;;;;;;;23.30;88.10;;;;;;5093972;28;19908;-51
2023/07/08 02:24:50;;;;;;;;;;;23.30;88.10;;;;;;5075764;28;20237;-53
2023/07/08 02:27:16;;;;;;;;;;;23.30;88.20;;;;;;5076045;28;19934;-52
2023/07/08 02:29:42;;;;;;;;;;;23.30;88.20;;;;;;5093898;28;19908;-51
2023/07/08 02:32:09;;;;;;;;;;;23.30;88.20;;;;;;5093777;28;20313;-49
2023/07/08 02:34:35;;;;;;;;;;;23.30;88.20;;;;;;5093499;28;19999;-52
2023/07/08 02:37:00;;;;;;;;;;;23.30;88.10;;;;;;5093801;28;20327;-50
2023/07/08 02:39:26;;;;;;;;;;;23.30;88.20;;;;;;5094121;28;20339;-53
2023/07/08 02:41:51;;;;;;;;;;;23.30;88.20;;;;;;5093668;28;20325;-53
2023/07/08 02:44:17;;;;;;;;;;;23.30;88.20;;;;;;5093470;28;19995;-49
2023/07/08 02:46:42;;;;;;;;;;;23.30;88.20;;;;;;5094099;28;19930;-51
2023/07/08 02:49:08;;;;;;;;;;;23.30;88.20;;;;;;5093442;28;19916;-51
2023/07/08 02:51:33;;;;;;;;;;;23.30;88.20;;;;;;5093526;28;20367;-50
2023/07/08 02:53:59;;;;;;;;;;;23.30;88.20;;;;;;5093649;28;19916;-52
2023/07/08 02:56:26;;;;;;;;;;;23.30;88.20;;;;;;5093424;28;20348;-48
2023/07/08 02:58:52;;;;;;;;;;;23.30;88.20;;;;;;5093888;28;19908;-52
2023/07/08 03:01:17;;;;;;;;;;;23.20;88.10;;;;;;5093582;28;19916;-52
2023/07/08 03:03:46;;;;;;;;;;;23.30;88.00;;;;;;5093501;28;19908;-51
2023/07/08 03:06:12;;;;;;;;;;;23.30;88.00;;;;;;5093354;28;19908;-50
2023/07/08 03:08:37;;;;;;;;;;;23.30;88.00;;;;;;5093387;28;20252;-51
2023/07/08 03:11:04;;;;;;;;;;;23.30;88.10;;;;;;5075289;28;19971;-53
2023/07/08 03:13:30;;;;;;;;;;;23.20;88.10;;;;;;5093505;28;19915;-53
2023/07/08 03:15:55;;;;;;;;;;;23.30;88.10;;;;;;5093819;28;19915;-51
2023/07/08 03:18:23;;;;;;;;;;;23.30;88.20;;;;;;5077973;28;20003;-49
2023/07/08 03:20:49;;;;;;;;;;;23.20;88.10;;;;;;5097035;28;19919;-49
2023/07/08 03:23:14;;;;;;;;;;;23.30;88.20;;;;;;5096718;28;19908;-50
2023/07/08 03:25:40;;;;;;;;;;;23.30;88.10;;;;;;5096551;28;19915;-50
2023/07/08 03:28:06;;;;;;;;;;;23.20;88.10;;;;;;5097168;28;19908;-52
2023/07/08 03:30:32;;;;;;;;;;;23.20;88.10;;;;;;5096530;28;19908;-50
2023/07/08 03:32:57;;;;;;;;;;;23.30;88.10;;;;;;5096577;28;20060;-50
2023/07/08 03:35:23;;;;;;;;;;;23.30;88.20;;;;;;5096356;28;20337;-51
2023/07/08 03:37:48;;;;;;;;;;;23.30;88.20;;;;;;5096723;28;19912;-49
2023/07/08 03:40:14;;;;;;;;;;;23.30;88.30;;;;;;5096586;28;20317;-50
2023/07/08 03:42:39;;;;;;;;;;;23.30;88.30;;;;;;5096944;28;19938;-50
2023/07/08 03:45:05;;;;;;;;;;;23.30;88.40;;;;;;5081185;28;19927;-48
2023/07/08 03:47:31;;;;;;;;;;;23.30;88.50;;;;;;5098877;28;19954;-50
2023/07/08 03:49:56;;;;;;;;;;;23.30;88.60;;;;;;5106025;28;20268;-52
2023/07/08 03:52:21;;;;;;;;;;;23.30;88.60;;;;;;5098168;28;20465;-51
2023/07/08 03:54:47;;;;;;;;;;;23.30;88.60;;;;;;5116299;28;20326;-51
2023/07/08 03:57:12;;;;;;;;;;;23.30;88.60;;;;;;5116466;28;19908;-48
2023/07/08 03:59:38;;;;;;;;;;;23.30;88.60;;;;;;5116421;28;19919;-50
2023/07/08 04:02:04;;;;;;;;;;;23.30;88.60;;;;;;5116671;28;20010;-48
2023/07/08 04:04:29;;;;;;;;;;;23.30;88.70;;;;;;5116244;28;20332;-52
2023/07/08 04:06:55;;;;;;;;;;;23.30;88.70;;;;;;5116415;28;20002;-51
2023/07/08 04:09:20;;;;;;;;;;;23.30;88.70;;;;;;5114180;28;19912;-51
2023/07/08 04:11:46;;;;;;;;;;;23.30;88.70;;;;;;5095972;28;19912;-48
2023/07/08 04:14:11;;;;;;;;;;;23.30;88.70;;;;;;5077705;28;19913;-51
2023/07/08 04:16:45;;;;;;;;;;;23.30;88.70;;;;;;5095629;28;19908;-51
2023/07/08 04:19:14;;;;;;;;;;;23.30;88.70;;;;;;5096290;28;19908;-48
2023/07/08 04:21:40;;;;;;;;;;;23.30;88.70;;;;;;5107309;28;19912;-51
2023/07/08 04:24:05;;;;;;;;;;;23.30;88.70;;;;;;5116038;28;19915;-49
2023/07/08 04:26:35;;;;;;;;;;;23.30;88.80;;;;;;5110450;28;19912;-50
2023/07/08 04:29:01;;;;;;;;;;;23.30;88.80;;;;;;5077243;28;20298;-49
2023/07/08 04:31:26;;;;;;;;;;;23.30;87.90;;;;;;5099300;28;19962;-52
2023/07/08 04:33:52;;;;;;;;;;;23.20;80.50;;;;;;5108055;28;19923;-53
2023/07/08 04:36:17;;;;;;;;;;;23.20;85.10;;;;;;5115620;28;19914;-47
2023/07/08 04:38:46;;;;;;;;;;;23.20;86.80;;;;;;5097384;28;20369;-48
2023/07/08 04:41:11;;;;;;;;;;;23.30;87.50;;;;;;5108773;28;19918;-51
2023/07/08 04:43:38;;;;;;;;;;;23.20;87.70;;;;;;5093107;28;19999;-48
2023/07/08 04:46:10;;;;;;;;;;;23.30;88.00;;;;;;5095380;28;19920;-48
2023/07/08 04:48:35;;;;;;;;;;;23.30;88.00;;;;;;5094998;28;19957;-49
2023/07/08 04:51:01;;;;;;;;;;;23.30;88.20;;;;;;5095052;28;20002;-52
2023/07/08 04:53:26;;;;;;;;;;;23.30;88.20;;;;;;5095213;28;19912;-51
2023/07/08 04:55:54;;;;;;;;;;;23.30;88.20;;;;;;5094845;28;19908;-52
2023/07/08 04:58:19;;;;;;;;;;;23.30;88.30;;;;;;5095166;28;19912;-51
2023/07/08 05:00:45;;;;;;;;;;;23.30;88.20;;;;;;5095085;28;19934;-52
2023/07/08 05:03:10;;;;;;;;;;;23.30;88.20;;;;;;5093303;28;19908;-49
2023/07/08 05:05:36;;;;;;;;;;;23.30;88.30;;;;;;5093035;28;19915;-48
2023/07/08 05:08:01;;;;;;;;;;;23.30;88.30;;;;;;5093766;28;19908;-49
2023/07/08 05:10:27;;;;;;;;;;;23.30;88.30;;;;;;5093599;28;19908;-50
2023/07/08 05:12:52;;;;;;;;;;;23.30;88.30;;;;;;5093327;28;19999;-50
2023/07/08 05:15:17;;;;;;;;;;;23.30;88.30;;;;;;5093232;28;20090;-53
2023/07/08 05:17:43;;;;;;;;;;;23.30;88.40;;;;;;5093917;28;20290;-52
2023/07/08 05:20:10;;;;;;;;;;;23.30;88.30;;;;;;5094673;28;19919;-49
2023/07/08 05:22:36;;;;;;;;;;;23.30;88.30;;;;;;5094261;28;19915;-52
2023/07/08 05:25:02;;;;;;;;;;;23.30;88.30;;;;;;5094602;28;19908;-48
2023/07/08 05:27:28;;;;;;;;;;;23.30;88.30;;;;;;5094471;28;19931;-51
2023/07/08 05:29:53;;;;;;;;;;;23.30;88.30;;;;;;5094165;28;19931;-51
2023/07/08 05:32:19;;;;;;;;;;;23.30;88.30;;;;;;5094330;28;19912;-51
2023/07/08 05:34:45;;;;;;;;;;;23.30;88.30;;;;;;5094442;28;19920;-52
2023/07/08 05:37:11;;;;;;;;;;;23.30;88.20;;;;;;5094424;28;20305;-53
2023/07/08 05:39:37;;;;;;;;;;;23.30;88.30;;;;;;5093843;28;20267;-49
2023/07/08 05:42:02;;;;;;;;;;;23.30;88.30;;;;;;5094112;28;19914;-52
2023/07/08 05:44:28;;;;;;;;;;;23.30;88.40;;;;;;5094284;28;19923;-51
2023/07/08 05:46:53;;;;;;;;;;;23.30;88.40;;;;;;5094086;28;19953;-49
2023/07/08 05:49:19;;;;;;;;;;;23.30;88.30;;;;;;5094340;28;19952;-49
2023/07/08 05:51:44;;;;;;;;;;;23.30;88.30;;;;;;5094113;28;20204;-51
2023/07/08 05:54:10;;;;;;;;;;;23.30;88.20;;;;;;5094254;28;19912;-50
2023/07/08 05:56:36;;;;;;;;;;;23.30;88.20;;;;;;5094218;28;19916;-53
2023/07/08 05:59:02;;;;;;;;;;;23.30;88.20;;;;;;5094103;28;19908;-51
2023/07/08 06:01:27;;;;;;;;;;;23.30;88.20;;;;;;5094141;28;19908;-53
2023/07/08 06:03:53;;;;;;;;;;;23.30;88.20;;;;;;5092710;28;20056;-51
2023/07/08 06:06:18;;;;;;;;;;;23.30;88.20;;;;;;5094053;28;19913;-51
2023/07/08 06:08:44;;;;;;;;;;;23.30;88.20;;;;;;5092753;28;19908;-52
2023/07/08 06:11:09;;;;;;;;;;;23.30;88.30;;;;;;5093952;28;20436;-52
2023/07/08 06:13:35;;;;;;;;;;;23.30;88.30;;;;;;5093935;28;19912;-50
2023/07/08 06:16:00;;;;;;;;;;;23.20;88.30;;;;;;5093912;28;19908;-52
2023/07/08 06:18:26;;;;;;;;;;;23.30;88.40;;;;;;5093637;28;20264;-50
2023/07/08 06:20:55;;;;;;;;;;;23.30;88.40;;;;;;5093559;28;19916;-53
2023/07/08 06:23:20;;;;;;;;;;;23.30;88.40;;;;;;5093941;28;20274;-50
2023/07/08 06:25:46;;;;;;;;;;;23.30;88.40;;;;;;5093602;28;19908;-53
2023/07/08 06:28:11;;;;;;;;;;;23.30;88.40;;;;;;5092389;28;19911;-50
2023/07/08 06:30:37;;;;;;;;;;;23.30;88.40;;;;;;5092427;28;19912;-49
2023/07/08 06:33:03;;;;;;;;;;;23.30;88.50;;;;;;5093660;28;20312;-52
2023/07/08 06:35:28;;;;;;;;;;;23.30;88.50;;;;;;5093544;28;19916;-52
2023/07/08 06:37:54;;;;;;;;;;;23.30;88.50;;;;;;5093644;28;19908;-53
2023/07/08 06:40:19;;;;;;;;;;;23.30;88.50;;;;;;5093769;28;19908;-52
2023/07/08 06:42:45;;;;;;;;;;;23.30;88.50;;;;;;5093630;28;19908;-53
2023/07/08 06:45:11;;;;;;;;;;;23.30;88.50;;;;;;5093934;28;19920;-53
2023/07/08 06:47:36;;;;;;;;;;;23.30;88.60;;;;;;5093657;28;20308;-53
2023/07/08 06:50:02;;;;;;;;;;;23.30;88.60;;;;;;5093951;28;19978;-53
2023/07/08 06:52:33;;;;;;;;;;;23.30;88.60;;;;;;5096268;28;19919;-51
2023/07/08 06:54:59;;;;;;;;;;;23.30;88.60;;;;;;5097118;28;19923;-52
2023/07/08 06:57:25;;;;;;;;;;;23.30;88.60;;;;;;5097433;28;19909;-50
2023/07/08 06:59:50;;;;;;;;;;;23.30;88.60;;;;;;5097197;28;19908;-52
2023/07/08 07:02:16;;;;;;;;;;;23.30;88.60;;;;;;5096036;28;19909;-53
2023/07/08 07:04:42;;;;;;;;;;;23.30;88.70;;;;;;5091684;28;19955;-52
2023/07/08 07:07:07;;;;;;;;;;;23.30;88.70;;;;;;5096452;28;19962;-50
2023/07/08 07:09:33;;;;;;;;;;;23.30;88.70;;;;;;5096864;28;19908;-52
2023/07/08 07:11:59;;;;;;;;;;;23.30;88.70;;;;;;5096955;28;19916;-54
2023/07/08 07:14:24;;;;;;;;;;;23.30;88.80;;;;;;5096845;28;19913;-51
2023/07/08 07:16:49;;;;;;;;;;;23.30;88.90;;;;;;5097225;28;19977;-53
2023/07/08 07:19:15;;;;;;;;;;;23.30;88.90;;;;;;5096342;28;19916;-49
2023/07/08 07:21:40;;;;;;;;;;;23.30;88.90;;;;;;5096928;28;19920;-53
2023/07/08 07:24:06;;;;;;;;;;;23.30;89.10;;;;;;5096379;28;19908;-52
2023/07/08 07:26:32;;;;;;;;;;;23.30;89.10;;;;;;5106527;28;19934;-53
2023/07/08 07:28:58;;;;;;;;;;;23.30;89.10;;;;;;5116461;28;19908;-49
2023/07/08 07:31:24;;;;;;;;;;;23.30;89.00;;;;;;5116864;28;20255;-51
2023/07/08 07:33:49;;;;;;;;;;;23.30;89.00;;;;;;5109084;28;19916;-50
2023/07/08 07:36:15;;;;;;;;;;;23.30;89.10;;;;;;5116606;28;19915;-50
2023/07/08 07:38:40;;;;;;;;;;;23.30;89.10;;;;;;5116606;28;19908;-52
2023/07/08 07:41:06;;;;;;;;;;;23.30;89.10;;;;;;5116795;28;20338;-51
2023/07/08 07:43:33;;;;;;;;;;;23.30;89.10;;;;;;5098760;28;19912;-57
2023/07/08 07:45:58;;;;;;;;;;;23.30;89.30;;;;;;5114986;28;20409;-51
2023/07/08 07:48:24;;;;;;;;;;;23.30;89.80;;;;;;5112991;28;19913;-51
2023/07/08 07:50:51;;;;;;;;;;;23.30;86.20;;;;;;5096365;28;19912;-53
2023/07/08 07:53:16;;;;;;;;;;;23.30;87.30;;;;;;5094763;28;19916;-51
2023/07/08 07:55:42;;;;;;;;;;;23.30;88.10;;;;;;5095782;28;19920;-53
2023/07/08 07:58:07;;;;;;;;;;;23.30;88.60;;;;;;5095515;28;19908;-50
2023/07/08 08:00:33;;;;;;;;;;;23.30;88.80;;;;;;5095944;28;20372;-52
2023/07/08 08:02:59;;;;;;;;;;;23.30;88.90;;;;;;5095456;28;19912;-52
2023/07/08 08:05:24;;;;;;;;;;;23.30;88.90;;;;;;5077800;28;19915;-51
2023/07/08 08:07:50;;;;;;;;;;;23.30;88.90;;;;;;5095956;28;20278;-52
2023/07/08 08:10:15;;;;;;;;;;;23.30;88.90;;;;;;5095864;28;19966;-49
2023/07/08 08:12:41;;;;;;;;;;;23.30;89.00;;;;;;5095406;28;19916;-51
2023/07/08 08:15:07;;;;;;;;;;;23.30;89.00;;;;;;5095512;28;19912;-55
2023/07/08 08:17:32;;;;;;;;;;;23.30;89.10;;;;;;5095629;28;19908;-54
2023/07/08 08:19:58;;;;;;;;;;;23.30;89.10;;;;;;5095440;28;19919;-49
2023/07/08 08:22:23;;;;;;;;;;;23.30;89.10;;;;;;5095533;28;19908;-51
2023/07/08 08:24:49;;;;;;;;;;;23.30;89.10;;;;;;5095348;28;19912;-50
2023/07/08 08:27:14;;;;;;;;;;;23.30;89.20;;;;;;5095230;28;19908;-54
2023/07/08 08:29:40;;;;;;;;;;;23.30;89.20;;;;;;5094949;28;19908;-50
2023/07/08 08:32:05;;;;;;;;;;;23.30;89.10;;;;;;5095376;28;19912;-52
2023/07/08 08:34:31;;;;;;;;;;;23.30;89.20;;;;;;5095476;28;19912;-54
2023/07/08 08:36:57;;;;;;;;;;;23.30;89.20;;;;;;5095037;28;19931;-53
2023/07/08 08:39:24;;;;;;;;;;;23.30;89.20;;;;;;5095330;28;19909;-52
2023/07/08 08:41:53;;;;;;;;;;;23.30;89.30;;;;;;5095114;28;20003;-53
2023/07/08 08:44:24;;;;;;;;;;;23.30;89.30;;;;;;5094866;28;19924;-50
2023/07/08 08:46:54;;;;;;;;;;;23.30;89.30;;;;;;5095136;28;20010;-51
2023/07/08 08:49:20;;;;;;;;;;;23.30;89.40;;;;;;5095152;28;20018;-52
2023/07/08 08:51:46;;;;;;;;;;;23.30;89.40;;;;;;5094943;28;19951;-53
2023/07/08 08:54:11;;;;;;;;;;;23.30;90.00;;;;;;5094937;28;19959;-51
2023/07/08 08:56:37;;;;;;;;;;;23.30;89.50;;;;;;5095225;28;20267;-48
2023/07/08 08:59:07;;;;;;;;;;;23.30;89.50;;;;;;5094613;28;19986;-50
2023/07/08 09:01:32;;;;;;;;;;;23.30;89.50;;;;;;5095155;28;20044;-51
2023/07/08 09:04:03;;;;;;;;;;;23.30;90.00;;;;;;5094806;28;19908;-51
2023/07/08 09:06:30;;;;;;;;;;;23.30;89.60;;;;;;5094608;28;19909;-49
2023/07/08 09:08:57;;;;;;;;;;;23.30;89.60;;;;;;5094763;28;19908;-50
2023/07/08 09:11:30;;;;;;;;;;;23.30;89.60;;;;;;5094677;28;19912;-51
2023/07/08 09:13:56;;;;;;;;;;;23.30;89.70;;;;;;5094771;28;19919;-54
2023/07/08 09:16:36;;;;;;;;;;;23.30;89.60;;;;;;5093745;28;20007;-53
2023/07/08 09:19:17;;;;;;;;;;;23.30;89.90;;;;;;5093998;28;20255;-51
2023/07/08 09:21:46;;;;;;;;;;;23.30;89.60;;;;;;5094193;28;20370;-50
2023/07/08 09:24:24;;;;;;;;;;;23.30;89.70;;;;;;5094302;28;20002;-54
2023/07/08 09:26:50;;;;;;;;;;;23.30;89.70;;;;;;5094222;28;19920;-53
2023/07/08 09:29:16;;;;;;;;;;;23.30;89.70;;;;;;5094028;28;19915;-52
2023/07/08 09:31:42;;;;;;;;;;;23.30;89.70;;;;;;5093853;28;19912;-51
2023/07/08 09:34:13;;;;;;;;;;;23.30;89.70;;;;;;5093856;28;20428;-51
2023/07/08 09:36:40;;;;;;;;;;;23.30;89.70;;;;;;5093968;28;19912;-48
2023/07/08 09:39:09;;;;;;;;;;;23.30;89.70;;;;;;5094620;28;19947;-53
2023/07/08 09:41:35;;;;;;;;;;;23.30;89.70;;;;;;5093964;28;20323;-51
2023/07/08 09:44:29;;;;;;;;;;;23.30;89.70;;;;;;5093985;28;19914;-50
2023/07/08 09:46:58;;;;;;;;;;;23.30;89.70;;;;;;5094061;28;19915;-52
2023/07/08 09:49:28;;;;;;;;;;;23.30;89.70;;;;;;5093674;28;19952;-53
2023/07/08 09:51:54;;;;;;;;;;;23.30;89.70;;;;;;5093912;28;19913;-51
2023/07/08 09:54:21;;;;;;;;;;;23.30;89.70;;;;;;5094018;28;19919;-49
2023/07/08 09:56:52;;;;;;;;;;;23.30;89.70;;;;;;5093858;28;19940;-50
2023/07/08 09:59:18;;;;;;;;;;;23.30;89.70;;;;;;5093990;28;19908;-54
2023/07/08 10:01:44;;;;;;;;;;;23.30;89.70;;;;;;5093770;28;19958;-53
2023/07/08 10:04:11;;;;;;;;;;;23.30;89.70;;;;;;5093884;28;19908;-55
2023/07/08 10:06:36;;;;;;;;;;;23.30;89.80;;;;;;5093765;28;19916;-53
2023/07/08 10:09:03;;;;;;;;;;;23.30;89.70;;;;;;5093191;28;19995;-53
2023/07/08 10:11:35;;;;;;;;;;;23.30;89.70;;;;;;5093428;28;20008;-49
2023/07/08 10:14:14;;;;;;;;;;;23.30;89.70;;;;;;5094080;28;19912;-51
2023/07/08 10:16:39;;;;;;;;;;;23.30;89.80;;;;;;5093469;28;19912;-53
2023/07/08 10:19:12;;;;;;;;;;;23.30;89.80;;;;;;5093479;28;20275;-52
2023/07/08 10:21:51;;;;;;;;;;;23.30;89.80;;;;;;5093524;28;19909;-52
2023/07/08 10:24:22;;;;;;;;;;;23.30;89.80;;;;;;5075680;28;19908;-53
2023/07/08 10:26:52;;;;;;;;;;;23.30;89.80;;;;;;5095683;28;20320;-50
2023/07/08 10:29:17;;;;;;;;;;;23.30;89.80;;;;;;5097047;28;20304;-54
2023/07/08 10:32:06;;;;;;;;;;;23.30;89.70;;;;;;5079650;28;19912;-53
2023/07/08 10:34:50;;;;;;;;;;;23.30;89.80;;;;;;5068367;28;19920;-52
2023/07/08 10:37:25;;;;;;;;;;;23.30;89.70;;;;;;5079595;28;19931;-51
2023/07/08 10:39:50;;;;;;;;;;;23.30;89.70;;;;;;5097843;28;20013;-53
2023/07/08 10:42:16;;;;;;;;;;;23.30;89.70;;;;;;5097306;28;19912;-54
2023/07/08 10:44:50;;;;;;;;;;;23.30;89.70;;;;;;5097544;28;19920;-51
2023/07/08 10:47:28;;;;;;;;;;;23.30;89.70;;;;;;5097938;28;19912;-50
2023/07/08 10:49:56;;;;;;;;;;;23.30;89.80;;;;;;5097504;28;19908;-52
2023/07/08 10:52:40;;;;;;;;;;;23.30;89.70;;;;;;5096838;28;20297;-52
2023/07/08 10:55:38;;;;;;;;;;;23.30;89.70;;;;;;5097335;28;19938;-50
2023/07/08 10:58:22;;;;;;;;;;;23.30;89.70;;;;;;5062842;28;20369;-52
2023/07/08 11:00:59;;;;;;;;;;;23.30;89.60;;;;;;5097182;28;19915;-50
2023/07/08 11:03:27;;;;;;;;;;;23.30;89.70;;;;;;5097170;28;19909;-53
2023/07/08 11:06:02;;;;;;;;;;;23.30;89.60;;;;;;5097437;28;19916;-48
2023/07/08 11:08:33;;;;;;;;;;;23.30;89.60;;;;;;5096825;28;20355;-52
2023/07/08 11:11:25;;;;;;;;;;;23.30;89.60;;;;;;5096938;28;19912;-51
2023/07/08 11:13:53;;;;;;;;;;;23.30;89.60;;;;;;5073029;28;20327;-48
2023/07/08 11:16:25;;;;;;;;;;;23.30;89.60;;;;;;5096962;28;20495;-51
2023/07/08 11:18:51;;;;;;;;;;;23.30;89.60;;;;;;5097049;28;19983;-51
2023/07/08 11:21:23;;;;;;;;;;;23.30;89.60;;;;;;5096874;28;20282;-53
2023/07/08 11:24:03;;;;;;;;;;;23.30;89.60;;;;;;5096624;28;20347;-51
2023/07/08 11:26:28;;;;;;;;;;;23.30;89.60;;;;;;5096479;28;19908;-51
2023/07/08 11:28:57;;;;;;;;;;;23.30;89.40;;;;;;5096557;28;20007;-49
2023/07/08 11:31:23;;;;;;;;;;;23.30;89.50;;;;;;5095988;28;19966;-53
2023/07/08 11:33:49;;;;;;;;;;;23.30;89.50;;;;;;5096082;28;19920;-54
2023/07/08 11:36:15;;;;;;;;;;;23.30;89.50;;;;;;5096407;28;19908;-52
2023/07/08 11:38:48;;;;;;;;;;;23.30;89.60;;;;;;5095292;28;19909;-53
2023/07/08 11:41:16;;;;;;;;;;;23.30;89.50;;;;;;5096461;28;19915;-51
2023/07/08 11:43:45;;;;;;;;;;;23.30;89.60;;;;;;5096615;28;19908;-53
2023/07/08 11:46:14;;;;;;;;;;;23.30;89.50;;;;;;5096402;28;19920;-51
2023/07/08 11:48:43;;;;;;;;;;;23.30;89.50;;;;;;5095955;28;20350;-52
2023/07/08 11:51:09;;;;;;;;;;;23.30;89.50;;;;;;5095973;28;19916;-52
2023/07/08 11:53:46;;;;;;;;;;;23.30;89.50;;;;;;5096172;28;19990;-52
2023/07/08 11:56:20;;;;;;;;;;;23.30;89.50;;;;;;5096067;28;20362;-52
2023/07/08 11:58:48;;;;;;;;;;;23.30;89.50;;;;;;5095962;28;19956;-50
2023/07/08 12:01:16;;;;;;;;;;;23.30;89.50;;;;;;5095869;28;19930;-50
2023/07/08 12:03:49;;;;;;;;;;;23.30;89.50;;;;;;5095801;28;19915;-51
2023/07/08 12:06:27;;;;;;;;;;;23.30;89.40;;;;;;5095701;28;19909;-54
2023/07/08 12:08:53;;;;;;;;;;;23.30;89.40;;;;;;5077645;28;20070;-51
2023/07/08 12:11:23;;;;;;;;;;;23.30;89.50;;;;;;5095429;28;19912;-52
2023/07/08 12:13:49;;;;;;;;;;;23.30;89.40;;;;;;5095741;28;19916;-52
2023/07/08 12:16:14;;;;;;;;;;;23.30;89.40;;;;;;5095769;28;19953;-52
2023/07/08 12:18:45;;;;;;;;;;;23.30;89.30;;;;;;5095192;28;20017;-51
2023/07/08 12:21:12;;;;;;;;;;;23.30;89.30;;;;;;5095386;28;19915;-52
2023/07/08 12:23:43;;;;;;;;;;;23.30;89.30;;;;;;5095411;28;20319;-50
2023/07/08 12:26:09;;;;;;;;;;;23.30;89.40;;;;;;5077689;28;20002;-52
2023/07/08 12:28:36;;;;;;;;;;;23.30;89.40;;;;;;5095064;28;20362;-50
2023/07/08 12:31:01;;;;;;;;;;;23.30;89.30;;;;;;5095158;28;19915;-53
2023/07/08 12:33:29;;;;;;;;;;;23.30;89.40;;;;;;5095190;28;20297;-51
2023/07/08 12:35:55;;;;;;;;;;;23.30;89.30;;;;;;5095032;28;20305;-48
2023/07/08 12:38:28;;;;;;;;;;;23.30;89.10;;;;;;5095023;28;19915;-49
2023/07/08 12:41:01;;;;;;;;;;;23.30;89.10;;;;;;5094914;28;20267;-54
2023/07/08 12:43:27;;;;;;;;;;;23.30;89.20;;;;;;5095250;28;20261;-51
2023/07/08 12:45:52;;;;;;;;;;;23.30;89.20;;;;;;5095309;28;19920;-52
2023/07/08 12:48:18;;;;;;;;;;;23.30;89.10;;;;;;5076077;28;19957;-52
2023/07/08 12:50:44;;;;;;;;;;;23.30;89.20;;;;;;5101122;28;19919;-51
2023/07/08 12:53:12;;;;;;;;;;;23.30;89.30;;;;;;5091538;28;20278;-54
2023/07/08 12:55:41;;;;;;;;;;;23.30;89.50;;;;;;5094308;28;20189;-49
2023/07/08 12:58:09;;;;;;;;;;;23.30;89.50;;;;;;5095042;28;19908;-53
2023/07/08 13:00:38;;;;;;;;;;;23.30;89.50;;;;;;5097313;28;20007;-51
2023/07/08 13:03:14;;;;;;;;;;;23.30;89.00;;;;;;5094619;28;19999;-53
2023/07/08 13:05:41;;;;;;;;;;;23.40;88.90;;;;;;5094576;28;20011;-53
2023/07/08 13:08:08;;;;;;;;;;;23.30;88.70;;;;;;5094201;28;19919;-54
2023/07/08 13:10:34;;;;;;;;;;;23.30;88.70;;;;;;5099722;28;19976;-51
2023/07/08 13:13:01;;;;;;;;;;;23.30;88.80;;;;;;5094242;28;19912;-51
2023/07/08 13:15:33;;;;;;;;;;;23.30;88.70;;;;;;5113812;28;19961;-51
2023/07/08 13:17:59;;;;;;;;;;;23.30;88.70;;;;;;5115040;28;20282;-52
2023/07/08 13:20:24;;;;;;;;;;;23.30;88.70;;;;;;5115172;28;19908;-50
2023/07/08 13:22:55;;;;;;;;;;;23.30;88.70;;;;;;5115290;28;19911;-53
2023/07/08 13:25:25;;;;;;;;;;;23.30;88.70;;;;;;5112350;28;19907;-52
2023/07/08 13:27:54;;;;;;;;;;;23.30;88.70;;;;;;5094132;28;19953;-54
2023/07/08 13:30:20;;;;;;;;;;;23.30;88.80;;;;;;5094589;28;20308;-50
2023/07/08 13:32:56;;;;;;;;;;;23.30;89.30;;;;;;5094433;28;19912;-51
2023/07/08 13:35:22;;;;;;;;;;;23.30;88.80;;;;;;5094257;28;19912;-50
2023/07/08 13:37:49;;;;;;;;;;;23.40;88.90;;;;;;5093948;28;19909;-51
2023/07/08 13:40:15;;;;;;;;;;;23.30;88.80;;;;;;5094432;28;19995;-53
2023/07/08 13:42:46;;;;;;;;;;;23.30;88.90;;;;;;5093761;28;19943;-52
2023/07/08 13:45:43;;;;;;;;;;;23.40;89.10;;;;;;5094059;28;19989;-48
2023/07/08 13:48:13;;;;;;;;;;;23.40;89.10;;;;;;5081723;28;19916;-53
2023/07/08 13:50:45;;;;;;;;;;;23.40;89.10;;;;;;5094387;28;19919;-50
2023/07/08 13:53:18;;;;;;;;;;;23.30;88.70;;;;;;5093821;28;19948;-50
2023/07/08 13:55:43;;;;;;;;;;;23.30;88.70;;;;;;5094284;28;19918;-52
2023/07/08 13:58:14;;;;;;;;;;;23.30;88.90;;;;;;5093825;28;20009;-51
2023/07/08 14:00:40;;;;;;;;;;;23.30;88.90;;;;;;5096195;28;19912;-53
2023/07/08 14:03:07;;;;;;;;;;;23.40;89.40;;;;;;5114544;28;19957;-54
2023/07/08 14:05:33;;;;;;;;;;;23.30;88.90;;;;;;5094281;28;19915;-53
2023/07/08 14:07:58;;;;;;;;;;;23.40;89.00;;;;;;5108496;28;20370;-50
2023/07/08 14:10:24;;;;;;;;;;;23.40;88.50;;;;;;5107083;28;19961;-53
2023/07/08 14:12:49;;;;;;;;;;;23.40;88.20;;;;;;5113812;28;20358;-53
2023/07/08 14:15:15;;;;;;;;;;;23.40;88.20;;;;;;5095875;28;19918;-50
2023/07/08 14:17:40;;;;;;;;;;;23.30;88.10;;;;;;5113961;28;19915;-51